Etusivu
METAR-TAF:

METAR-TAF

Lentoasemat :

Arlandan kansainvälinen lentoasema

Tukholma-Arlanda, Ruotsi

Leveyspiiri: 59-39N, Pituuspiiri: 017-57E, korkeus merenpinnasta: 38 m

Tämänhetkinen sää

Tämä raportti tehtiin 28 minuuttia sitten, kello 14.50 UTC
Tuuli 9 kn idästä/kaakosta
Lämpötila 17°C
Kosteus 39%
Ilmanpaine 1010 hPa
Näkyvyys 10 km tai enemmän
ei pilviä alle 1500 m:ssä eikä cumulonimbus-pilviä

METAR: ESSA 031450Z 11009KT CAVOK 17/03 Q1010 NOSIG

Aika: 17:18 (15:18 UTC)

Sääennuste

Tämä raportti tehtiin 3 tuntia ja 48 minuuttia sitten, kello 11.30 UTC
Ennuste voimassa 03. päivästä klo 12 UTC - 04. päivään klo 12 UTC
Tuuli 10 kn kaakosta
Näkyvyys 10 km tai enemmän
ei pilviä alle 1500 m:ssä eikä cumulonimbus-pilviä
Tulossa
03. päivästä klo 20 UTC - 03. päivään klo 22 UTC
Tuuli 4 kn idästä/koillisesta

TAF: ESSA 031130Z 0312/0412 14010KT CAVOK BECMG 0320/0322 07004KT

Säähavainnot ja -ennusteet yli 4000 lentoasemalta (METAR- ja TAF-raportit).

Käytössä olevat sääasemat on merkitty karttaan keltaisilla ja punaisilla pisteillä.

Aseta hiiri pisteen päälle nähdäksesi sääaseman nimen.

Klikkaa sitten nähdäksesi säähavainnot ja -ennusteet.

Kartan vaihtaminen: klikkaa mustalla rastilla varustettuja vihreitä pisteitä, niin voit zoomata sisään; viivalla varustettua vihreää pistettä, niin voit zoomata ulos tai vihreitä nuolia, niin pääset viereisille kartoille.


METAR-TAF: